Time;durP1;ratioP1;P1;durP2;ratioP2;P2;SDS_P1;SDS_P2;PMS_P1;PMS_P2;Temp;Humidity;BMP_temperature;BMP_pressure;BME280_temperature;BME280_humidity;BME280_pressure;Samples;Min_cycle;Max_cycle;Signal;HPM_P1;HPM_P2
2023/03/19 00:00:13;;;;;;;10.50;8.87;;;8.80;99.90;;;;;;5025512;28;20271;-81
2023/03/19 00:02:40;;;;;;;14.40;8.60;;;8.80;99.90;;;;;;5025105;28;20220;-81
2023/03/19 00:05:07;;;;;;;15.27;9.20;;;8.70;99.90;;;;;;5027664;28;20208;-83
2023/03/19 00:07:34;;;;;;;12.73;9.33;;;8.70;99.90;;;;;;5026842;28;20646;-81
2023/03/19 00:10:02;;;;;;;12.23;8.50;;;8.90;99.90;;;;;;5027999;28;20644;-81
2023/03/19 00:12:29;;;;;;;10.93;8.57;;;8.80;99.90;;;;;;5026947;28;20235;-81
2023/03/19 00:14:55;;;;;;;14.20;9.07;;;8.60;99.90;;;;;;5007075;28;20209;-81
2023/03/19 00:17:22;;;;;;;13.17;9.07;;;8.60;99.90;;;;;;5005761;28;20264;-81
2023/03/19 00:19:50;;;;;;;13.87;9.10;;;8.70;99.90;;;;;;5026121;28;20216;-81
2023/03/19 00:22:17;;;;;;;13.27;8.87;;;8.80;99.90;;;;;;5027032;28;20263;-81
2023/03/19 00:24:44;;;;;;;12.90;8.47;;;8.70;99.90;;;;;;5009508;28;20201;-85
2023/03/19 00:27:12;;;;;;;12.07;8.83;;;8.70;99.90;;;;;;5008144;28;20228;-81
2023/03/19 00:29:40;;;;;;;13.97;10.00;;;9.00;99.90;;;;;;5007518;28;20228;-81
2023/03/19 00:32:07;;;;;;;14.67;10.10;;;9.20;99.90;;;;;;5007272;28;20240;-82
2023/03/19 00:34:33;;;;;;;15.57;10.30;;;9.10;99.90;;;;;;5022449;28;20208;-82
2023/03/19 00:37:00;;;;;;;16.27;9.67;;;9.00;99.90;;;;;;5026569;28;20214;-84
2023/03/19 00:39:27;;;;;;;14.53;9.13;;;9.00;99.90;;;;;;5012574;28;20213;-81
2023/03/19 00:41:54;;;;;;;13.80;9.23;;;8.90;99.90;;;;;;5007259;28;20717;-83
2023/03/19 00:44:22;;;;;;;13.93;9.10;;;9.10;99.90;;;;;;5018644;28;20269;-82
2023/03/19 00:46:49;;;;;;;14.77;8.73;;;9.00;99.90;;;;;;5026669;28;20224;-82
2023/03/19 00:49:16;;;;;;;11.90;8.20;;;9.00;99.90;;;;;;5025292;28;20657;-82
2023/03/19 00:51:43;;;;;;;14.23;8.27;;;8.90;99.90;;;;;;5026475;28;20225;-81
2023/03/19 00:54:11;;;;;;;12.93;8.70;;;8.60;99.90;;;;;;5016363;28;20232;-82
2023/03/19 00:56:38;;;;;;;11.77;8.70;;;8.50;99.90;;;;;;5006792;28;20284;-81
2023/03/19 00:59:05;;;;;;;11.87;8.67;;;8.60;99.90;;;;;;5006425;28;20205;-81
2023/03/19 01:01:33;;;;;;;12.87;8.67;;;8.60;99.90;;;;;;5006079;28;20296;-84
2023/03/19 01:04:00;;;;;;;11.57;8.53;;;8.60;99.90;;;;;;5012943;28;20291;-83
2023/03/19 01:06:27;;;;;;;12.97;8.73;;;8.50;99.90;;;;;;5026424;28;20660;-81
2023/03/19 01:08:54;;;;;;;12.20;8.23;;;8.40;99.90;;;;;;5019859;28;20203;-80
2023/03/19 01:11:20;;;;;;;10.87;7.83;;;8.20;99.90;;;;;;5006592;28;20290;-81
2023/03/19 01:13:47;;;;;;;13.07;8.60;;;7.90;99.90;;;;;;5006082;28;20207;-81
2023/03/19 01:16:14;;;;;;;12.43;8.40;;;8.00;99.90;;;;;;5005832;28;20235;-81
2023/03/19 01:18:42;;;;;;;13.93;9.00;;;8.10;99.90;;;;;;5005593;28;20204;-83
2023/03/19 01:21:09;;;;;;;13.13;9.73;;;8.10;99.90;;;;;;5016119;28;20229;-82
2023/03/19 01:23:36;;;;;;;12.40;9.23;;;8.20;99.90;;;;;;5004120;28;20295;-81
2023/03/19 01:26:03;;;;;;;11.97;8.60;;;8.20;99.90;;;;;;5004094;28;20710;-83
2023/03/19 01:28:30;;;;;;;11.00;7.70;;;8.20;99.90;;;;;;5004047;28;20701;-81
2023/03/19 01:30:59;;;;;;;9.93;7.53;;;8.00;99.90;;;;;;5003912;28;20209;-81
2023/03/19 01:33:26;;;;;;;10.77;8.20;;;7.60;99.90;;;;;;5004093;28;20202;-81
2023/03/19 01:35:56;;;;;;;14.17;8.40;;;7.60;99.90;;;;;;5004254;28;20208;-81
2023/03/19 01:38:24;;;;;;;49.63;10.63;;;7.50;99.90;;;;;;5003055;28;20213;-81
2023/03/19 01:40:51;;;;;;;55.57;10.77;;;7.30;99.90;;;;;;5004068;28;20201;-81
2023/03/19 01:43:20;;;;;;;27.90;10.80;;;7.30;99.90;;;;;;5020883;28;20200;-81
2023/03/19 01:45:47;;;;;;;26.83;10.97;;;7.40;99.90;;;;;;5023819;28;20204;-82
2023/03/19 01:48:26;;;;;;;20.93;10.37;;;7.40;99.90;;;;;;5003549;28;20232;-84
2023/03/19 01:50:56;;;;;;;14.13;9.43;;;7.40;99.90;;;;;;5004114;28;20208;-81
2023/03/19 01:53:25;;;;;;;14.23;9.17;;;7.40;99.90;;;;;;5004752;28;20272;-83
2023/03/19 01:55:55;;;;;;;12.87;8.53;;;7.10;99.90;;;;;;5004651;28;20284;-81
2023/03/19 01:58:22;;;;;;;12.20;8.57;;;7.10;99.90;;;;;;5003635;28;20205;-80
2023/03/19 02:00:49;;;;;;;41.67;8.93;;;7.00;99.90;;;;;;5006953;28;20200;-83
2023/03/19 02:03:16;;;;;;;19.97;8.23;;;7.00;99.90;;;;;;5033002;28;20208;-81
2023/03/19 02:05:46;;;;;;;41.37;9.03;;;6.90;99.90;;;;;;5013340;28;20272;-84
2023/03/19 02:08:17;;;;;;;52.80;8.50;;;6.80;99.90;;;;;;5013909;28;20227;-81
2023/03/19 02:10:47;;;;;;;12.30;8.07;;;6.90;99.90;;;;;;5005467;28;20590;-81
2023/03/19 02:13:14;;;;;;;17.80;9.80;;;6.90;99.90;;;;;;5008507;28;20212;-83
2023/03/19 02:15:41;;;;;;;22.57;8.87;;;6.80;99.90;;;;;;5001137;28;20204;-83
2023/03/19 02:18:08;;;;;;;10.80;8.07;;;6.90;99.90;;;;;;5021566;28;20215;-82
2023/03/19 02:20:43;;;;;;;12.73;8.53;;;7.00;99.90;;;;;;5022261;28;20222;-81
2023/03/19 02:23:20;;;;;;;9.97;7.70;;;7.00;99.90;;;;;;5021799;28;20229;-81
2023/03/19 02:26:00;;;;;;;11.63;8.30;;;6.90;99.90;;;;;;5022915;28;20287;-81
2023/03/19 02:28:27;;;;;;;9.10;7.33;;;6.90;99.90;;;;;;5003301;28;20221;-84
2023/03/19 02:30:54;;;;;;;7.97;7.10;;;6.90;99.90;;;;;;5008872;28;20208;-81
2023/03/19 02:33:21;;;;;;;12.27;8.07;;;6.90;99.90;;;;;;5023746;28;20291;-82
2023/03/19 02:35:51;;;;;;;28.63;9.53;;;6.80;99.90;;;;;;5022519;28;20203;-81
2023/03/19 02:38:21;;;;;;;10.87;8.80;;;6.70;99.90;;;;;;5021755;28;20272;-83
2023/03/19 02:40:51;;;;;;;12.73;9.00;;;6.60;99.90;;;;;;5005415;28;20209;-82
2023/03/19 02:43:21;;;;;;;10.37;8.00;;;6.70;99.90;;;;;;5018091;28;20214;-81
2023/03/19 02:45:48;;;;;;;10.70;7.77;;;6.60;99.90;;;;;;5022417;28;20204;-84
2023/03/19 02:48:14;;;;;;;10.27;7.53;;;6.70;99.90;;;;;;5021174;28;20220;-81
2023/03/19 02:50:41;;;;;;;10.43;7.97;;;6.70;99.90;;;;;;5020200;28;20287;-84
2023/03/19 02:53:08;;;;;;;9.80;7.40;;;6.80;99.90;;;;;;5023395;28;20229;-82
2023/03/19 02:55:35;;;;;;;10.57;8.50;;;6.80;99.90;;;;;;5005527;28;20205;-81
2023/03/19 02:58:02;;;;;;;10.33;8.03;;;6.80;99.90;;;;;;5023074;28;20207;-82
2023/03/19 03:00:30;;;;;;;10.37;8.10;;;6.90;99.90;;;;;;5035628;28;20199;-81
2023/03/19 03:02:58;;;;;;;10.60;8.20;;;7.20;99.90;;;;;;5023715;28;20250;-81
2023/03/19 03:05:24;;;;;;;10.37;7.70;;;7.10;99.90;;;;;;5019014;28;20211;-84
2023/03/19 03:07:52;;;;;;;10.23;8.07;;;7.00;99.90;;;;;;5002952;28;20225;-82
2023/03/19 03:10:19;;;;;;;8.87;7.43;;;7.00;99.90;;;;;;5022462;28;20215;-83
2023/03/19 03:12:46;;;;;;;12.07;8.23;;;7.20;99.90;;;;;;5010933;28;20288;-84
2023/03/19 03:15:13;;;;;;;10.20;7.87;;;7.00;99.90;;;;;;5023620;28;20205;-84
2023/03/19 03:17:44;;;;;;;9.83;7.80;;;7.10;99.90;;;;;;5008132;28;20291;-80
2023/03/19 03:20:13;;;;;;;11.73;8.23;;;7.10;99.90;;;;;;5020913;28;20208;-82
2023/03/19 03:22:40;;;;;;;10.83;8.37;;;7.10;99.90;;;;;;5025896;28;20230;-82
2023/03/19 03:25:09;;;;;;;12.37;7.90;;;7.10;99.90;;;;;;5024796;28;20211;-83
2023/03/19 03:27:36;;;;;;;11.00;8.17;;;7.20;99.90;;;;;;5026277;28;20216;-84
2023/03/19 03:30:04;;;;;;;11.20;8.23;;;7.30;99.90;;;;;;5025977;28;20598;-81
2023/03/19 03:32:31;;;;;;;11.77;8.37;;;7.20;99.90;;;;;;5011102;28;20227;-81
2023/03/19 03:34:59;;;;;;;13.17;8.73;;;7.20;99.90;;;;;;5024781;28;20200;-81
2023/03/19 03:37:26;;;;;;;12.30;8.73;;;7.10;99.90;;;;;;5046197;28;20196;-84
2023/03/19 03:39:53;;;;;;;12.40;7.50;;;7.20;99.90;;;;;;5024866;28;20196;-82
2023/03/19 03:42:20;;;;;;;9.23;7.30;;;6.90;99.90;;;;;;5026299;28;20299;-80
2023/03/19 03:44:47;;;;;;;11.60;8.20;;;6.50;99.90;;;;;;5024225;28;20545;-82
2023/03/19 03:47:14;;;;;;;12.43;8.30;;;6.30;99.90;;;;;;5026816;28;20208;-81
2023/03/19 03:49:41;;;;;;;13.70;9.07;;;6.50;99.90;;;;;;5016651;28;20243;-82
2023/03/19 03:52:09;;;;;;;11.73;8.37;;;6.80;99.90;;;;;;5025700;28;20224;-81
2023/03/19 03:54:36;;;;;;;13.13;8.77;;;6.90;99.90;;;;;;5025264;28;20204;-81
2023/03/19 03:57:03;;;;;;;11.17;9.30;;;6.90;99.90;;;;;;5024868;28;20188;-82
2023/03/19 03:59:30;;;;;;;12.90;9.20;;;6.90;99.90;;;;;;5021739;28;20224;-81
2023/03/19 04:01:57;;;;;;;11.80;8.33;;;7.10;99.90;;;;;;5007867;28;20256;-82
2023/03/19 04:04:24;;;;;;;11.10;8.27;;;7.10;99.90;;;;;;5014200;28;20196;-82
2023/03/19 04:06:51;;;;;;;13.43;9.20;;;7.10;99.90;;;;;;5013159;28;20204;-84
2023/03/19 04:09:19;;;;;;;13.63;8.57;;;7.00;99.90;;;;;;5020040;28;20275;-84
2023/03/19 04:11:46;;;;;;;11.57;8.70;;;7.10;99.90;;;;;;5014319;28;20225;-85
2023/03/19 04:14:13;;;;;;;14.60;8.80;;;7.10;99.90;;;;;;5024050;28;20208;-82
2023/03/19 04:16:40;;;;;;;14.70;8.67;;;6.90;99.90;;;;;;5016794;28;20295;-82
2023/03/19 04:19:07;;;;;;;14.40;10.03;;;6.90;99.90;;;;;;5004929;28;20217;-83
2023/03/19 04:21:34;;;;;;;12.33;8.90;;;6.90;99.90;;;;;;5012265;28;20235;-81
2023/03/19 04:24:01;;;;;;;12.47;8.40;;;6.90;99.90;;;;;;5022510;28;20238;-84
2023/03/19 04:26:29;;;;;;;12.20;8.60;;;6.90;99.90;;;;;;5011620;28;20200;-83
2023/03/19 04:28:57;;;;;;;12.20;8.43;;;6.90;99.90;;;;;;5023083;28;20224;-82
2023/03/19 04:31:24;;;;;;;12.60;8.30;;;6.90;99.90;;;;;;5014493;28;20720;-81
2023/03/19 04:33:51;;;;;;;17.10;9.47;;;7.00;99.90;;;;;;5005392;28;20640;-85
2023/03/19 04:36:18;;;;;;;10.83;8.60;;;7.10;99.90;;;;;;5016115;28;20213;-82
2023/03/19 04:38:45;;;;;;;11.73;8.10;;;6.90;99.90;;;;;;5004802;28;20220;-82
2023/03/19 04:41:14;;;;;;;13.00;9.17;;;6.90;99.90;;;;;;5013838;28;20230;-82
2023/03/19 04:43:42;;;;;;;14.87;8.53;;;6.90;99.90;;;;;;5023818;28;20261;-81
2023/03/19 04:46:09;;;;;;;14.60;9.30;;;7.00;99.90;;;;;;5022452;28;20192;-84
2023/03/19 04:48:36;;;;;;;15.13;10.00;;;7.00;99.90;;;;;;5005178;28;20221;-84
2023/03/19 04:51:03;;;;;;;13.47;9.90;;;6.90;99.90;;;;;;5002965;28;20523;-81
2023/03/19 04:53:31;;;;;;;11.87;9.07;;;7.00;99.90;;;;;;5012384;28;20268;-83
2023/03/19 04:55:58;;;;;;;13.77;8.87;;;7.00;99.90;;;;;;5002920;28;20261;-83
2023/03/19 04:58:25;;;;;;;12.83;9.63;;;6.90;99.90;;;;;;5012560;28;20647;-80
2023/03/19 05:00:53;;;;;;;12.43;9.63;;;7.10;99.90;;;;;;5016779;28;20211;-81
2023/03/19 05:03:20;;;;;;;16.03;11.60;;;7.10;99.90;;;;;;5019006;28;20231;-81
2023/03/19 05:05:47;;;;;;;18.57;11.93;;;7.10;99.90;;;;;;5007758;28;20221;-81
2023/03/19 05:08:14;;;;;;;14.53;9.13;;;7.00;99.90;;;;;;5024209;28;20228;-81
2023/03/19 05:10:41;;;;;;;14.87;8.40;;;6.80;99.90;;;;;;5022294;28;20201;-80
2023/03/19 05:13:08;;;;;;;13.80;8.27;;;6.70;99.90;;;;;;5027077;28;20230;-82
2023/03/19 05:15:34;;;;;;;12.17;8.07;;;6.80;99.90;;;;;;5016180;28;20565;-81
2023/03/19 05:18:03;;;;;;;11.73;8.17;;;6.70;99.90;;;;;;5021461;28;20220;-82
2023/03/19 05:20:30;;;;;;;11.37;7.93;;;6.80;99.90;;;;;;5023388;28;20291;-83
2023/03/19 05:22:57;;;;;;;13.23;8.50;;;6.70;99.90;;;;;;5026221;28;20224;-82
2023/03/19 05:25:23;;;;;;;10.97;8.27;;;6.70;99.90;;;;;;5028129;28;20275;-81
2023/03/19 05:27:50;;;;;;;10.37;7.53;;;6.80;99.90;;;;;;5022052;28;20230;-82
2023/03/19 05:30:17;;;;;;;10.40;7.03;;;6.80;99.90;;;;;;5028592;28;20211;-83
2023/03/19 05:32:45;;;;;;;11.43;7.70;;;6.80;99.90;;;;;;5018552;28;20651;-84
2023/03/19 05:35:13;;;;;;;11.83;7.83;;;6.90;99.90;;;;;;5020897;28;20923;-84
2023/03/19 05:37:40;;;;;;;11.83;8.60;;;6.90;99.90;;;;;;5020599;28;20231;-85
2023/03/19 05:40:08;;;;;;;11.57;7.93;;;6.70;99.90;;;;;;5019606;28;20214;-83
2023/03/19 05:42:35;;;;;;;11.00;7.57;;;6.90;99.90;;;;;;5022294;28;20230;-85
2023/03/19 05:45:03;;;;;;;11.57;7.43;;;6.90;99.90;;;;;;5016208;28;20268;-82
2023/03/19 05:47:30;;;;;;;11.00;7.37;;;6.90;99.90;;;;;;5025696;28;20243;-82
2023/03/19 05:49:57;;;;;;;11.33;8.03;;;7.00;99.90;;;;;;5032795;28;21378;-81
2023/03/19 05:52:25;;;;;;;25.50;16.80;;;7.00;99.90;;;;;;5023425;28;20287;-82
2023/03/19 05:54:52;;;;;;;11.80;8.67;;;7.00;99.90;;;;;;5028431;28;20211;-82
2023/03/19 05:57:18;;;;;;;11.50;8.03;;;6.80;99.90;;;;;;5022768;28;20204;-81
2023/03/19 05:59:45;;;;;;;13.83;9.20;;;6.80;99.90;;;;;;5018276;28;20200;-82
2023/03/19 06:02:12;;;;;;;11.63;8.70;;;7.10;99.90;;;;;;5027377;28;20227;-85
2023/03/19 06:04:39;;;;;;;12.90;8.77;;;7.00;99.90;;;;;;5033096;28;20214;-80
2023/03/19 06:07:07;;;;;;;12.67;8.07;;;7.10;99.90;;;;;;5021059;28;20268;-80
2023/03/19 06:09:35;;;;;;;12.60;8.27;;;7.00;99.90;;;;;;5028260;28;20424;-80
2023/03/19 06:12:02;;;;;;;12.60;8.53;;;6.90;99.90;;;;;;5020537;28;20279;-81
2023/03/19 06:14:29;;;;;;;12.53;7.80;;;6.90;99.90;;;;;;5020110;28;20204;-80
2023/03/19 06:16:56;;;;;;;10.53;7.67;;;7.10;99.90;;;;;;5023188;28;20200;-79
2023/03/19 06:19:23;;;;;;;16.03;9.20;;;7.00;99.90;;;;;;5017203;28;20224;-82
2023/03/19 06:21:50;;;;;;;9.87;7.80;;;7.30;99.90;;;;;;5024404;28;20235;-83
2023/03/19 06:24:18;;;;;;;10.70;8.20;;;7.40;99.90;;;;;;5021956;28;20220;-83
2023/03/19 06:26:46;;;;;;;10.10;7.73;;;7.60;99.90;;;;;;5015416;28;20212;-83
2023/03/19 06:29:13;;;;;;;10.63;8.40;;;7.80;99.90;;;;;;5023759;28;20308;-83
2023/03/19 06:31:40;;;;;;;10.90;8.47;;;8.00;99.90;;;;;;5021642;28;20255;-82
2023/03/19 06:34:07;;;;;;;10.47;8.10;;;8.00;99.90;;;;;;5030498;28;20258;-80
2023/03/19 06:36:34;;;;;;;12.23;8.27;;;8.10;99.90;;;;;;5032402;28;20207;-80
2023/03/19 06:39:02;;;;;;;9.47;7.27;;;8.20;99.90;;;;;;5021035;28;20201;-80
2023/03/19 06:41:28;;;;;;;12.90;7.53;;;8.30;99.90;;;;;;5025403;28;20648;-81
2023/03/19 06:43:57;;;;;;;9.13;6.83;;;8.40;99.90;;;;;;5028153;28;20303;-81
2023/03/19 06:46:23;;;;;;;10.37;6.50;;;8.40;99.90;;;;;;5023994;28;20292;-81
2023/03/19 06:48:50;;;;;;;9.57;7.40;;;8.50;99.90;;;;;;5027601;28;20225;-81
2023/03/19 06:51:17;;;;;;;12.33;7.93;;;8.50;99.90;;;;;;5024264;28;20721;-80
2023/03/19 06:53:44;;;;;;;10.10;7.07;;;8.50;99.90;;;;;;5030863;28;20208;-81
2023/03/19 06:56:12;;;;;;;16.63;9.73;;;8.60;99.90;;;;;;5027300;28;20272;-81
2023/03/19 06:58:38;;;;;;;10.23;7.03;;;8.60;99.90;;;;;;5034137;28;20204;-82
2023/03/19 07:01:07;;;;;;;13.23;7.47;;;8.60;99.90;;;;;;5024942;28;20204;-81
2023/03/19 07:03:34;;;;;;;9.00;6.23;;;8.70;99.90;;;;;;5028250;28;20236;-80
2023/03/19 07:06:01;;;;;;;9.10;6.27;;;8.80;99.90;;;;;;5027806;28;20203;-84
2023/03/19 07:08:29;;;;;;;9.47;6.40;;;8.80;99.90;;;;;;5029629;28;20598;-81
2023/03/19 07:10:56;;;;;;;8.77;6.53;;;8.80;99.90;;;;;;5022778;28;20229;-82
2023/03/19 07:13:23;;;;;;;8.47;6.60;;;8.80;99.90;;;;;;5023586;28;20554;-82
2023/03/19 07:15:49;;;;;;;12.03;7.60;;;8.80;99.90;;;;;;5029787;28;20240;-83
2023/03/19 07:18:18;;;;;;;11.30;6.33;;;8.90;99.90;;;;;;5023144;28;20343;-81
2023/03/19 07:20:45;;;;;;;9.80;7.23;;;8.80;99.90;;;;;;5020807;28;20204;-82
2023/03/19 07:23:12;;;;;;;8.73;7.33;;;8.80;99.90;;;;;;5026632;28;20215;-85
2023/03/19 07:25:38;;;;;;;11.10;7.77;;;8.90;99.90;;;;;;5027837;28;20208;-81
2023/03/19 07:28:05;;;;;;;11.63;7.13;;;8.80;99.90;;;;;;5025698;28;20235;-81
2023/03/19 07:30:32;;;;;;;8.50;6.53;;;8.80;99.90;;;;;;5025035;28;20204;-84
2023/03/19 07:32:59;;;;;;;7.77;4.47;;;8.90;99.90;;;;;;5022935;28;20217;-80
2023/03/19 07:35:27;;;;;;;7.93;6.03;;;9.20;99.90;;;;;;5023511;28;20224;-80
2023/03/19 07:37:54;;;;;;;6.83;5.80;;;9.50;99.90;;;;;;5025869;28;20204;-81
2023/03/19 07:40:21;;;;;;;10.30;6.40;;;9.40;99.90;;;;;;5024818;28;20211;-81
2023/03/19 07:42:48;;;;;;;9.00;5.40;;;9.30;99.90;;;;;;5022827;28;20227;-81
2023/03/19 07:45:15;;;;;;;9.67;5.00;;;9.40;99.90;;;;;;5026691;28;20222;-80
2023/03/19 07:47:42;;;;;;;7.00;4.00;;;9.50;99.90;;;;;;5031592;28;20626;-80
2023/03/19 07:50:11;;;;;;;4.30;3.60;;;9.80;99.90;;;;;;5019229;28;20264;-81
2023/03/19 07:52:39;;;;;;;5.53;3.50;;;10.00;99.90;;;;;;5032088;28;20279;-84
2023/03/19 07:55:06;;;;;;;5.40;3.50;;;10.10;99.90;;;;;;5029769;28;20212;-83
2023/03/19 07:57:33;;;;;;;5.60;3.70;;;10.20;99.90;;;;;;5024744;28;20247;-81
2023/03/19 08:00:00;;;;;;;5.53;3.50;;;10.30;99.90;;;;;;5020607;28;20201;-81
2023/03/19 08:02:27;;;;;;;4.27;3.30;;;10.30;99.90;;;;;;5037230;28;20233;-81
2023/03/19 08:04:54;;;;;;;7.23;3.30;;;10.30;99.90;;;;;;5029141;28;20666;-81
2023/03/19 08:07:21;;;;;;;4.80;3.07;;;10.40;99.90;;;;;;5022889;28;20264;-80
2023/03/19 08:09:49;;;;;;;4.07;3.00;;;10.50;99.90;;;;;;5027925;28;20231;-85
2023/03/19 08:12:16;;;;;;;6.40;3.23;;;10.50;99.90;;;;;;5021271;28;20307;-82
2023/03/19 08:14:43;;;;;;;4.17;3.13;;;10.70;99.90;;;;;;5023132;28;20204;-81
2023/03/19 08:17:10;;;;;;;7.23;3.90;;;10.60;99.90;;;;;;5028250;28;20227;-80
2023/03/19 08:19:37;;;;;;;4.90;3.77;;;10.70;99.90;;;;;;5019738;28;20200;-82
2023/03/19 08:22:04;;;;;;;9.90;4.13;;;10.70;99.90;;;;;;5034342;28;20255;-81
2023/03/19 08:24:31;;;;;;;5.00;4.00;;;10.70;99.90;;;;;;5018661;28;20212;-81
2023/03/19 08:26:59;;;;;;;7.20;4.30;;;10.80;99.90;;;;;;5024419;28;20214;-81
2023/03/19 08:29:26;;;;;;;8.00;4.60;;;10.90;99.90;;;;;;5035829;28;20263;-80
2023/03/19 08:31:54;;;;;;;7.70;4.57;;;11.10;99.90;;;;;;5014743;28;20293;-82
2023/03/19 08:34:22;;;;;;;7.23;4.53;;;11.30;99.90;;;;;;5018075;28;20247;-82
2023/03/19 08:36:49;;;;;;;7.17;4.00;;;11.40;99.90;;;;;;5029979;28;20272;-80
2023/03/19 08:39:15;;;;;;;6.87;4.47;;;11.50;99.90;;;;;;5022921;28;20215;-83
2023/03/19 08:41:42;;;;;;;8.30;4.87;;;11.60;99.90;;;;;;5034050;28;20237;-81
2023/03/19 08:44:11;;;;;;;6.60;4.30;;;11.80;99.90;;;;;;5028377;28;20227;-81
2023/03/19 08:46:37;;;;;;;5.27;4.07;;;11.80;99.90;;;;;;5037147;28;20665;-81
2023/03/19 08:49:04;;;;;;;5.50;4.40;;;11.80;99.90;;;;;;5019269;28;20227;-82
2023/03/19 08:51:31;;;;;;;7.53;4.83;;;11.90;99.90;;;;;;5028793;28;20230;-81
2023/03/19 08:53:58;;;;;;;8.67;5.10;;;12.00;99.90;;;;;;5026102;28;20376;-80
2023/03/19 08:56:25;;;;;;;7.63;4.47;;;12.30;99.90;;;;;;5022954;28;20277;-81
2023/03/19 08:58:51;;;;;;;4.93;3.90;;;12.90;99.90;;;;;;5026016;28;20200;-82
2023/03/19 09:01:20;;;;;;;6.33;4.33;;;12.90;99.90;;;;;;5015857;28;20232;-81
2023/03/19 09:03:47;;;;;;;5.93;4.03;;;12.80;99.90;;;;;;5018645;28;20205;-81
2023/03/19 09:06:14;;;;;;;5.10;3.87;;;12.70;99.90;;;;;;5027254;28;20286;-82
2023/03/19 09:08:41;;;;;;;6.23;4.10;;;12.90;99.90;;;;;;5025506;28;20196;-79
2023/03/19 09:11:09;;;;;;;5.33;3.37;;;13.00;99.90;;;;;;5018961;28;20200;-80
2023/03/19 09:13:36;;;;;;;4.50;3.27;;;13.20;99.90;;;;;;5020014;28;20258;-81
2023/03/19 09:16:02;;;;;;;3.23;2.90;;;13.80;99.90;;;;;;5027470;28;20201;-80
2023/03/19 09:18:31;;;;;;;3.13;2.83;;;14.30;99.90;;;;;;5031942;28;20299;-83
2023/03/19 09:20:58;;;;;;;4.07;3.28;;;14.70;99.90;;;;;;5024732;28;20611;-83
2023/03/19 09:23:25;;;;;;;3.92;3.00;;;15.40;99.90;;;;;;5031381;28;20573;-83
2023/03/19 09:25:51;;;;;;;3.25;2.88;;;15.80;99.90;;;;;;5029961;28;20344;-81
2023/03/19 09:28:19;;;;;;;4.30;3.13;;;16.20;99.90;;;;;;5023277;28;20591;-81
2023/03/19 09:30:47;;;;;;;2.42;2.22;;;16.50;99.90;;;;;;5015166;28;20232;-83
2023/03/19 09:33:14;;;;;;;3.33;2.50;;;16.90;99.90;;;;;;5024553;28;20233;-81
2023/03/19 09:35:43;;;;;;;3.00;2.67;;;17.00;99.90;;;;;;5024384;28;20273;-81
2023/03/19 09:38:09;;;;;;;2.95;2.55;;;17.40;99.90;;;;;;5025769;28;20235;-83
2023/03/19 09:40:39;;;;;;;2.53;2.33;;;16.70;99.90;;;;;;5016557;28;20344;-81
2023/03/19 09:43:27;;;;;;;2.50;2.30;;;16.80;99.90;;;;;;5022387;28;20224;-81
2023/03/19 09:45:54;;;;;;;2.90;2.08;;;16.80;99.90;;;;;;5024557;28;20200;-80
2023/03/19 09:48:32;;;;;;;2.55;2.10;;;16.20;99.90;;;;;;5029303;28;20224;-82
2023/03/19 09:51:02;;;;;;;3.10;2.25;;;16.30;99.90;;;;;;5029849;28;20219;-81
2023/03/19 09:53:39;;;;;;;2.47;1.90;;;16.10;99.90;;;;;;5027432;28;20200;-82
2023/03/19 09:56:08;;;;;;;3.08;2.20;;;16.00;99.90;;;;;;5019727;28;20205;-83
2023/03/19 09:58:36;;;;;;;2.28;1.85;;;15.80;99.90;;;;;;5016993;28;20233;-81
2023/03/19 10:01:04;;;;;;;2.75;1.90;;;16.10;99.90;;;;;;5021524;28;20204;-81
2023/03/19 10:03:43;;;;;;;2.85;2.10;;;16.50;99.90;;;;;;5030879;28;20291;-81
2023/03/19 10:06:25;;;;;;;2.92;2.05;;;16.70;99.90;;;;;;5020381;28;20238;-82
2023/03/19 10:09:15;;;;;;;2.45;2.25;;;16.50;99.90;;;;;;5015078;28;20200;-81
2023/03/19 10:11:51;;;;;;;26.02;18.33;;;16.40;99.90;;;;;;5017436;28;20220;-81
2023/03/19 10:14:41;;;;;;;3.00;2.28;;;16.70;99.90;;;;;;5025469;28;20299;-80
2023/03/19 10:17:14;;;;;;;1.52;1.42;;;16.80;99.90;;;;;;5015371;28;20212;-81
2023/03/19 10:19:47;;;;;;;1.90;1.52;;;16.70;99.90;;;;;;5024878;28;20232;-81
2023/03/19 10:22:18;;;;;;;1.27;1.17;;;17.00;99.90;;;;;;5013006;28;20228;-81
2023/03/19 10:24:47;;;;;;;1.95;1.10;;;16.70;99.90;;;;;;5006756;28;20260;-81
2023/03/19 10:27:16;;;;;;;6.45;1.38;;;16.70;99.90;;;;;;5028335;28;20206;-80
2023/03/19 10:29:42;;;;;;;1.73;1.42;;;16.70;99.90;;;;;;5023917;28;20259;-80
2023/03/19 10:32:18;;;;;;;2.22;1.20;;;16.90;99.90;;;;;;5021254;28;20287;-84
2023/03/19 10:34:47;;;;;;;3.78;2.10;;;17.10;99.90;;;;;;5020457;28;20204;-81
2023/03/19 10:37:19;;;;;;;2.67;1.92;;;17.20;99.90;;;;;;5029407;28;20215;-81
2023/03/19 10:39:47;;;;;;;3.60;2.22;;;17.50;99.90;;;;;;5015487;28;20205;-83
2023/03/19 10:42:31;;;;;;;2.38;2.10;;;17.30;99.90;;;;;;5020954;28;20232;-83
2023/03/19 10:45:04;;;;;;;4.45;1.90;;;17.50;99.90;;;;;;5028349;28;20213;-83
2023/03/19 10:47:37;;;;;;;4.28;2.05;;;17.60;99.90;;;;;;5024082;28;20219;-83
2023/03/19 10:50:05;;;;;;;4.03;1.80;;;17.50;99.90;;;;;;5021019;28;20234;-84
2023/03/19 10:52:36;;;;;;;1.75;1.65;;;17.60;99.90;;;;;;5019122;28;20224;-84
2023/03/19 10:55:12;;;;;;;2.00;1.20;;;17.50;99.90;;;;;;5019644;28;20571;-84
2023/03/19 10:57:42;;;;;;;3.08;1.48;;;17.70;99.90;;;;;;5022005;28;20223;-82
2023/03/19 11:00:17;;;;;;;1.73;1.63;;;17.60;99.90;;;;;;5016606;28;20284;-84
2023/03/19 11:02:48;;;;;;;3.33;2.08;;;17.40;99.90;;;;;;5021464;28;20242;-83
2023/03/19 11:05:26;;;;;;;2.85;1.42;;;17.60;99.90;;;;;;5008971;28;20209;-82
2023/03/19 11:07:59;;;;;;;2.42;1.38;;;18.00;99.90;;;;;;5022397;28;20212;-84
2023/03/19 11:10:30;;;;;;;2.05;1.55;;;17.80;99.90;;;;;;5018260;28;20224;-83
2023/03/19 11:12:59;;;;;;;3.67;1.67;;;17.70;99.90;;;;;;5016040;28;20251;-83
2023/03/19 11:15:29;;;;;;;3.70;1.70;;;17.60;99.90;;;;;;5019693;28;20240;-82
2023/03/19 11:17:58;;;;;;;3.85;1.95;;;17.60;99.90;;;;;;5022454;28;20220;-82
2023/03/19 11:20:30;;;;;;;2.25;2.00;;;17.70;99.90;;;;;;5018242;28;20194;-80
2023/03/19 11:23:01;;;;;;;3.22;2.08;;;17.70;99.90;;;;;;5021965;28;20246;-80
2023/03/19 11:25:33;;;;;;;2.15;1.95;;;17.80;99.90;;;;;;5024319;28;20232;-80
2023/03/19 11:28:02;;;;;;;4.55;2.03;;;18.00;99.90;;;;;;5025987;28;20235;-80
2023/03/19 11:30:37;;;;;;;3.65;2.30;;;18.00;99.90;;;;;;5027170;28;20278;-80
2023/03/19 11:33:17;;;;;;;2.80;1.70;;;18.00;99.90;;;;;;5019938;28;20296;-82
2023/03/19 11:35:51;;;;;;;3.17;2.05;;;18.10;99.90;;;;;;5022174;28;20207;-82
2023/03/19 11:38:31;;;;;;;3.25;1.90;;;18.30;99.90;;;;;;5028737;28;20261;-81
2023/03/19 11:41:06;;;;;;;3.38;2.00;;;18.20;99.90;;;;;;5021122;28;20214;-81
2023/03/19 11:43:46;;;;;;;4.13;2.13;;;18.40;99.90;;;;;;5026269;28;20202;-81
2023/03/19 11:46:24;;;;;;;3.70;2.35;;;18.60;99.90;;;;;;5025670;28;20211;-81
2023/03/19 11:49:19;;;;;;;5.10;1.95;;;18.40;99.90;;;;;;5035536;28;20291;-80
2023/03/19 11:51:50;;;;;;;3.05;1.70;;;18.20;99.90;;;;;;5030326;28;20228;-80
2023/03/19 11:54:26;;;;;;;3.70;1.92;;;18.70;99.90;;;;;;5033081;28;20200;-81
2023/03/19 11:56:59;;;;;;;2.67;2.05;;;18.70;99.90;;;;;;5023512;28;20816;-79
2023/03/19 11:59:41;;;;;;;3.55;2.00;;;17.90;99.90;;;;;;5024308;28;20193;-79
2023/03/19 12:02:43;;;;;;;1.98;1.77;;;18.10;99.90;;;;;;5021770;28;20619;-80
2023/03/19 12:05:20;;;;;;;2.10;1.90;;;18.40;99.90;;;;;;5025419;28;20212;-82
2023/03/19 12:08:00;;;;;;;2.60;2.05;;;18.70;99.90;;;;;;5029474;28;20279;-81
2023/03/19 12:10:42;;;;;;;4.57;2.05;;;18.70;99.90;;;;;;5020173;28;20331;-80
2023/03/19 12:13:22;;;;;;;2.30;2.10;;;19.00;99.90;;;;;;5029146;28;20239;-83
2023/03/19 12:15:58;;;;;;;3.65;2.20;;;19.00;99.90;;;;;;5034038;28;20569;-80
2023/03/19 12:18:43;;;;;;;3.00;2.05;;;19.00;99.90;;;;;;5025664;28;20222;-83
2023/03/19 12:21:16;;;;;;;4.95;2.20;;;19.00;99.90;;;;;;5006709;28;20185;-81
2023/03/19 12:23:59;;;;;;;3.25;2.15;;;18.90;99.90;;;;;;5006170;28;20189;-82
2023/03/19 12:26:35;;;;;;;3.88;2.28;;;18.70;99.90;;;;;;5004449;28;20191;-81
2023/03/19 12:29:10;;;;;;;4.70;2.10;;;18.90;99.90;;;;;;5018332;28;20211;-81
2023/03/19 12:31:50;;;;;;;6.13;4.18;;;18.40;99.90;;;;;;5017366;28;20232;-80
2023/03/19 12:34:26;;;;;;;2.67;2.00;;;18.40;99.90;;;;;;5025054;28;20224;-80
2023/03/19 12:36:58;;;;;;;2.85;1.90;;;18.30;99.90;;;;;;5027669;28;20222;-80
2023/03/19 12:39:31;;;;;;;3.92;1.80;;;18.20;99.90;;;;;;5023744;28;20748;-80
2023/03/19 12:42:02;;;;;;;3.45;1.83;;;18.00;99.90;;;;;;5023181;28;20746;-81
2023/03/19 12:44:34;;;;;;;5.43;2.20;;;17.90;99.90;;;;;;5032902;28;20216;-80
2023/03/19 12:47:05;;;;;;;3.33;2.22;;;17.80;99.90;;;;;;5025092;28;20200;-81
2023/03/19 12:49:37;;;;;;;3.97;2.20;;;17.90;99.90;;;;;;5025635;28;20207;-83
2023/03/19 12:52:15;;;;;;;3.00;2.17;;;17.90;99.90;;;;;;5018885;28;20235;-84
2023/03/19 12:54:45;;;;;;;3.90;2.28;;;17.80;99.90;;;;;;5027337;28;20267;-82
2023/03/19 12:57:18;;;;;;;3.97;2.40;;;17.80;99.90;;;;;;5023654;28;20211;-81